Terminal Aerodrome Forecast
Issued by NWS

Home | Current Version | Previous Version | Text Only | Print | Product List | Glossary On
Versions: 1 2 3 4 5 6 7 8 9 10 11 12 13 14 15 16 17 18 19 20 21 22 23 24
000
FTUS44 KTSA 161740
TAFRVS
TAF
KRVS 161740Z 1618/1718 19012G21KT P6SM SCT030 SCT100 BKN250
     FM170100 18011KT P6SM FEW040 BKN150
     FM170400 19008KT P6SM VCTS BKN050CB BKN120
      TEMPO 1704/1706 VRB15KT 3SM TSRA BKN040CB
     FM170800 21006KT P6SM FEW080 SCT250
     FM171100 34005KT P6SM FEW250=

USA.gov is the U.S. government's official web portal to all federal, state and local government web resources and services.